Latest Weather Observations for Rabbit Flat

IDD60801

Issued at 4:31 pm CST Wednesday 29 March 2017 (issued every 30 minutes, with the page automatically refreshed every 10 minutes)

About weather observations | Map of weather stations | Latest weather observations for NT | Other Formats
Station Details ID: 015666 Name: RABBIT FLAT Lat: -20.18 Lon: 130.01 Height: 340.0 m
Data from the previous 72 hours. | See also: Recent months at Rabbit Flat
Date/Time
CST
Temp
°C
App
Temp
°C
Dew
Point
°C
Rel
Hum
%
Delta-T
°C
Wind Press
QNH
hPa
Press
MSL
hPa
Rain since
9am
mm
Dir  Spd
km/h
Gust
km/h
Spd
kts
Gust
kts
29/04:30pm 39.8 38.8 11.0 18 17.5 ENE 7 17 4 9 1007.6 - 0.0
29/04:00pm 40.6 39.9 11.9 18 17.7 NE 7 13 4 7 1007.8 - 0.0
29/03:30pm 40.2 38.1 9.8 16 18.2 S 11 17 6 9 1008.0 - 0.0
29/03:00pm 39.9 38.9 10.9 17 17.6 S 7 13 4 7 1008.3 1005.9 0.0
29/02:30pm 39.9 37.6 10.6 17 17.7 SE 13 20 7 11 1008.6 - 0.0
29/02:00pm 39.4 38.2 11.6 19 17.0 NE 9 17 5 9 1008.9 - 0.0
29/01:30pm 39.3 37.6 11.1 18 17.1 ESE 11 17 6 9 1009.1 - 0.0
29/01:00pm 38.4 37.3 11.9 20 16.2 SE 9 17 5 9 1009.7 - 0.0
29/12:30pm 38.1 37.3 13.9 23 15.2 ENE 11 19 6 10 1010.1 - 0.0
29/12:00pm 37.3 36.7 14.7 26 14.3 E 11 19 6 10 1010.6 1008.2 0.0
29/11:30am 36.2 35.3 14.9 28 13.5 E 13 17 7 9 1011.0 - 0.0
29/11:00am 35.1 34.9 15.6 31 12.4 E 11 17 6 9 1011.3 - 0.0
29/10:30am 34.9 35.4 16.6 33 11.8 ESE 9 17 5 9 1011.5 - 0.0
29/10:00am 33.4 32.2 16.2 35 11.0 S 17 22 9 12 1011.6 - 0.0
29/09:30am 31.9 31.5 19.0 46 8.5 S 19 28 10 15 1011.6 - 0.0
29/09:00am 30.3 30.4 19.9 53 6.9 S 19 28 10 15 1011.7 1009.3 0.0
29/08:30am 29.4 29.7 19.7 56 6.4 SW 17 22 9 12 1011.0 - 0.0
29/08:00am 27.5 28.9 20.4 65 4.7 SSW 13 17 7 9 1010.8 - 0.0
29/07:30am 25.4 27.1 20.9 76 3.0 SW 13 17 7 9 1010.5 - 0.0
29/07:00am 23.8 26.1 21.3 86 1.7 WSW 11 13 6 7 1010.2 - 0.0
29/06:30am 23.7 26.0 21.3 86 1.6 W 11 13 6 7 1009.7 - 0.0
29/06:00am 24.1 27.1 21.3 84 1.9 W 7 9 4 5 1009.3 1006.9 0.0
29/05:30am 24.0 26.8 21.5 86 1.7 W 9 9 5 5 1009.1 - 0.0
29/05:00am 24.1 27.0 21.7 86 1.6 WNW 9 11 5 6 1009.0 - 0.0
29/04:30am 24.3 27.6 21.8 86 1.7 WNW 7 9 4 5 1008.8 - 0.0
29/04:00am 24.3 27.9 22.1 87 1.5 WNW 6 7 3 4 1008.6 - 0.0
29/03:30am 24.8 27.9 22.1 85 1.8 WNW 9 11 5 6 1008.7 - 0.0
29/03:00am 25.4 28.8 22.0 81 2.3 W 7 9 4 5 1008.8 1006.4 0.0
29/02:30am 25.7 28.7 21.9 79 2.6 W 9 13 5 7 1009.0 - 0.0
29/02:00am 25.9 29.2 21.8 78 2.8 WNW 7 11 4 6 1009.2 - 0.0
29/01:30am 26.6 29.9 21.9 75 3.2 NW 7 9 4 5 1009.3 - 0.0
29/01:00am 26.7 30.4 22.5 78 2.9 WNW 7 7 4 4 1009.5 - 0.0
29/12:30am 27.4 30.3 21.8 71 3.8 W 9 11 5 6 1009.5 - 0.0
29/12:00am 27.5 29.7 21.1 68 4.3 W 11 13 6 7 1009.8 1007.3 0.0
 
Date/Time
CST
Temp
°C
App
Temp
°C
Dew
Point
°C
Rel
Hum
%
Delta-T
°C
Wind Press
QNH
hPa
Press
MSL
hPa
Rain since
9am
mm
Dir  Spd
km/h
Gust
km/h
Spd
kts
Gust
kts
28/11:30pm 27.7 30.2 21.0 67 4.5 W 9 13 5 7 1009.8 - 0.0
28/11:00pm 28.0 30.1 21.0 65 4.7 WNW 11 13 6 7 1010.1 - 0.0
28/10:30pm 28.8 31.7 21.7 65 4.8 WNW 9 11 5 6 1010.1 - 0.0
28/10:00pm 29.7 32.6 21.0 59 5.9 NW 7 9 4 5 1009.9 - 0.0
28/09:30pm 29.2 33.2 23.1 69 4.2 NW 7 9 4 5 1009.7 - 0.0
28/09:00pm 29.5 35.2 23.8 71 4.0 CALM 0 0 0 0 1009.2 1006.8 0.0
28/08:30pm 30.5 35.8 23.0 64 5.2 CALM 0 0 0 0 1008.8 - 0.0
28/08:00pm 31.7 37.5 23.9 63 5.5 CALM 0 0 0 0 1008.4 - 0.0
28/07:30pm 32.7 38.3 23.6 58 6.4 CALM 0 0 0 0 1007.9 - 0.0
28/07:00pm 33.9 38.3 21.4 48 8.6 CALM 0 0 0 0 1007.5 - 0.0
28/06:30pm 36.6 39.0 18.8 35 11.9 S 4 7 2 4 1007.4 - 0.0
28/06:00pm 38.0 40.9 19.0 33 12.8 NNW 2 6 1 3 1007.4 1004.9 0.0
28/05:30pm 37.9 39.2 17.2 29 13.6 NNE 6 9 3 5 1007.2 - 0.0
28/05:00pm 38.4 39.0 16.9 28 14.1 S 9 13 5 7 1007.2 - 0.0
28/04:30pm 38.9 39.5 16.8 27 14.5 ENE 9 19 5 10 1007.4 - 0.0
28/04:00pm 39.7 40.6 17.5 27 14.7 NW 9 13 5 7 1007.6 - 0.0
28/03:30pm 38.9 39.3 17.2 28 14.3 SSE 11 17 6 9 1008.1 - 0.0
28/03:00pm 38.4 38.9 17.5 29 13.8 S 11 19 6 10 1008.3 1005.9 0.0
28/02:30pm 38.7 39.6 18.3 30 13.6 S 11 19 6 10 1008.6 - 0.0
28/02:00pm 38.2 39.9 18.6 31 13.1 ENE 7 11 4 6 1009.0 - 0.0
28/01:30pm 37.4 38.2 18.1 32 12.8 SSW 11 15 6 8 1009.5 - 0.0
28/01:00pm 37.5 38.9 18.6 33 12.6 E 9 20 5 11 1010.1 - 0.0
28/12:30pm 36.5 38.7 19.2 36 11.6 SW 6 11 3 6 1010.6 - 0.0
28/12:00pm 35.6 37.0 19.5 38 10.8 SSW 11 20 6 11 1011.1 1008.7 0.0
28/11:30am 35.4 36.8 19.5 39 10.7 SSE 11 17 6 9 1011.5 - 0.0
28/11:00am 34.8 36.3 19.8 41 10.1 SSE 11 20 6 11 1011.9 - 0.0
28/10:30am 33.7 35.0 20.2 45 9.1 SSW 13 20 7 11 1012.2 - 0.0
28/10:00am 32.9 33.7 19.9 46 8.7 S 15 24 8 13 1012.4 - 0.0
28/09:30am 32.0 33.5 20.6 51 7.7 SW 13 17 7 9 1012.4 - 0.0
28/09:00am 30.9 31.5 21.0 55 6.7 SW 19 24 10 13 1012.2 1009.8 0.2
28/08:30am 29.5 30.3 21.4 61 5.5 WSW 19 24 10 13 1012.1 - 0.2
28/08:00am 28.5 30.6 21.7 66 4.6 SW 13 19 7 10 1011.9 - 0.2
28/07:30am 27.0 29.3 22.0 74 3.4 WSW 13 20 7 11 1011.5 - 0.2
28/07:00am 26.2 28.7 22.4 79 2.6 WSW 13 15 7 8 1011.3 - 0.2
28/06:30am 25.9 28.5 22.7 82 2.2 W 13 19 7 10 1010.7 - 0.2
28/06:00am 25.7 28.9 23.1 85 1.8 W 11 17 6 9 1010.5 1008.1 0.2
28/05:30am 26.3 29.4 22.8 81 2.4 W 11 17 6 9 1010.1 - 0.2
28/05:00am 26.8 29.8 22.7 78 2.8 WSW 11 17 6 9 1010.2 - 0.2
28/04:30am 26.9 29.3 23.0 79 2.7 S 15 22 8 12 1010.4 - 0.2
28/04:00am 26.9 30.8 23.0 79 2.7 SW 7 9 4 5 1009.9 - 0.2
28/03:30am 27.0 30.8 22.8 78 2.9 SSW 7 9 4 5 1009.8 - 0.2
28/03:00am 27.4 29.5 22.4 74 3.4 W 15 19 8 10 1009.2 1006.8 0.2
28/02:30am 27.7 30.1 22.3 72 3.7 WNW 13 19 7 10 1009.3 - 0.2
28/02:00am 27.9 30.3 22.2 71 3.9 NW 13 17 7 9 1009.5 - 0.2
28/01:30am 28.3 29.9 21.5 66 4.6 NW 15 22 8 12 1010.0 - 0.2
28/01:00am 27.8 30.0 21.9 70 4.0 NW 13 19 7 10 1010.2 - 0.2
28/12:30am 28.3 32.5 23.4 75 3.4 N 7 9 4 5 1010.2 - 0.2
28/12:00am 29.2 31.3 21.7 64 5.1 NNE 13 19 7 10 1010.6 1008.2 0.2
 
Date/Time
CST
Temp
°C
App
Temp
°C
Dew
Point
°C
Rel
Hum
%
Delta-T
°C
Wind Press
QNH
hPa
Press
MSL
hPa
Rain since
9am
mm
Dir  Spd
km/h
Gust
km/h
Spd
kts
Gust
kts
27/11:30pm 28.0 33.4 25.2 85 2.0 W 6 7 3 4 1010.7 - 0.2
27/11:00pm 27.8 32.7 24.4 82 2.4 SW 6 7 3 4 1010.8 - 0.2
27/10:30pm 28.3 33.3 24.8 81 2.5 S 7 9 4 5 1010.8 - 0.2
27/10:00pm 28.8 33.6 25.1 80 2.6 WSW 9 9 5 5 1010.4 - 0.2
27/09:30pm 28.9 34.1 25.1 80 2.7 WNW 7 9 4 5 1010.2 - 0.2
27/09:00pm 29.7 34.1 23.8 70 4.1 W 7 7 4 4 1010.1 1007.6 0.2
27/08:30pm 30.1 35.0 24.3 71 4.1 NW 6 7 3 4 1009.5 - 0.2
27/08:00pm 30.9 35.3 23.8 66 5.0 NW 7 9 4 5 1009.1 - 0.2
27/07:30pm 31.4 35.5 23.2 61 5.7 WNW 7 9 4 5 1009.1 - 0.2
27/07:00pm 33.0 36.7 22.5 54 7.3 W 7 9 4 5 1008.7 - 0.2
27/06:30pm 34.6 38.3 22.2 48 8.6 WSW 6 7 3 4 1008.5 - 0.2
27/06:00pm 36.2 37.5 19.2 37 11.4 SW 11 15 6 8 1008.4 1006.0 0.2
27/05:30pm 36.1 38.3 19.6 38 11.1 SE 7 11 4 6 1008.3 - 0.2
27/05:00pm 35.7 37.7 19.1 37 11.1 S 7 11 4 6 1008.3 - 0.2
27/04:30pm 35.2 36.7 19.8 40 10.4 SSW 11 17 6 9 1008.5 - 0.2
27/04:00pm 36.3 38.2 19.7 37 11.2 SSE 9 17 5 9 1008.7 - 0.2
27/03:30pm 36.6 38.6 19.2 36 11.7 SSW 7 11 4 6 1009.0 - 0.2
27/03:00pm 36.2 37.9 18.4 35 11.8 SSE 7 11 4 6 1009.4 1007.0 0.2
27/02:30pm 36.4 38.5 19.3 36 11.5 E 7 15 4 8 1009.8 - 0.2
27/02:00pm 34.8 36.6 18.7 38 10.7 NE 7 13 4 7 1010.2 - 0.2
27/01:30pm 34.6 36.9 19.5 41 10.1 SE 6 13 3 7 1010.6 - 0.2
27/01:00pm 34.0 36.5 19.9 43 9.5 N 6 11 3 6 1011.1 - 0.2
27/12:30pm 33.4 35.9 19.8 44 9.1 NNW 6 13 3 7 1011.7 - 0.2
27/12:00pm 32.7 36.6 21.1 50 7.9 ENE 2 7 1 4 1012.3 1009.9 0.2
27/11:30am 32.2 36.0 21.7 54 7.2 W 4 7 2 4 1012.9 - 0.2
27/11:00am 30.7 35.8 22.6 62 5.6 CALM 0 6 0 3 1013.2 - 0.0
27/10:30am 29.8 34.9 22.7 65 4.9 CALM 0 0 0 0 1013.4 - 0.0
27/10:00am 28.4 34.5 24.4 79 2.8 CALM 0 0 0 0 1013.6 - 0.0
27/09:30am 27.0 31.9 24.6 87 1.7 WSW 7 9 4 5 1013.7 - 0.0
27/09:00am 26.9 31.7 24.5 87 1.7 NNW 7 9 4 5 1013.4 1011.0 6.8
27/08:30am 26.9 31.8 24.3 86 1.8 N 6 7 3 4 1013.1 - 6.8
27/08:00am 25.6 31.4 24.5 94 0.8 WNW 2 7 1 4 1012.5 - 6.8
27/07:30am 24.9 30.0 24.0 95 0.6 W 4 6 2 3 1012.0 - 6.8
27/07:00am 24.8 29.3 23.6 93 0.8 NW 6 7 3 4 1012.1 - 6.8
27/06:30am 24.5 27.9 23.3 93 0.8 NW 11 15 6 8 1012.2 - 6.8
27/06:00am 24.6 28.2 23.1 91 1.0 NW 9 13 5 7 1012.4 1010.0 6.6
27/05:30am 24.0 27.3 22.5 91 1.0 SW 9 17 5 9 1012.5 - 6.6
27/05:00am 23.7 24.3 22.1 91 1.1 SSW 22 35 12 19 1012.1 - 6.6
27/04:50am 24.1 22.8 22.5 91 1.1 S 33 43 18 23 1012.4 - 6.0
27/04:47am 24.0 21.9 22.4 91 1.1 SE 37 43 20 23 1012.5 - 4.4
27/04:30am 27.3 31.1 22.8 76 3.1 ESE 7 9 4 5 1012.0 - 1.0
27/04:00am 28.7 31.8 21.0 63 5.2 WNW 6 7 3 4 1011.6 - 1.0
27/03:30am 28.9 32.7 21.7 65 4.9 W 4 6 2 3 1011.3 - 1.0
27/03:00am 29.2 31.7 21.0 61 5.5 NNW 9 11 5 6 1011.1 1008.7 1.0
27/02:30am 28.8 31.5 21.3 64 5.1 WNW 9 13 5 7 1011.0 - 1.0
27/02:00am 28.5 31.5 21.9 67 4.5 WNW 9 11 5 6 1011.1 - 1.0
27/01:30am 28.2 31.2 21.9 68 4.3 WNW 9 11 5 6 1011.4 - 1.0
27/01:00am 28.0 32.1 22.9 74 3.5 NW 6 7 3 4 1011.7 - 1.0
27/12:30am 27.8 31.9 22.9 74 3.4 NW 6 7 3 4 1011.7 - 1.0
27/12:00am 27.9 32.6 23.9 79 2.8 NW 6 7 3 4 1011.7 1009.3 1.0
 
Date/Time
CST
Temp
°C
App
Temp
°C
Dew
Point
°C
Rel
Hum
%
Delta-T
°C
Wind Press
QNH
hPa
Press
MSL
hPa
Rain since
9am
mm
Dir  Spd
km/h
Gust
km/h
Spd
kts
Gust
kts
26/11:30pm 28.4 32.3 22.6 71 4.0 N 6 7 3 4 1011.7 - 1.0
26/11:00pm 28.4 33.6 22.9 72 3.8 CALM 0 0 0 0 1011.5 - 1.0
26/10:30pm 28.6 32.5 22.5 69 4.2 NNW 6 7 3 4 1011.3 - 1.0
26/10:00pm 29.4 32.9 22.1 65 5.0 NNW 7 9 4 5 1011.1 - 1.0
26/09:30pm 29.5 32.6 21.4 61 5.5 N 7 7 4 4 1010.8 - 1.0
26/09:00pm 29.7 33.3 22.4 65 5.0 NNW 7 7 4 4 1010.5 1008.1 1.0
26/08:30pm 30.6 33.2 20.5 54 6.8 NW 7 9 4 5 1010.1 - 1.0
26/08:00pm 31.1 34.1 21.2 55 6.7 WNW 7 9 4 5 1009.9 - 1.0
26/07:30pm 32.0 33.1 18.8 45 8.7 NNW 11 13 6 7 1009.4 - 1.0
26/07:00pm 32.3 33.6 19.4 46 8.6 N 11 15 6 8 1008.9 - 1.0
26/06:30pm 32.9 34.1 19.9 46 8.7 N 13 19 7 10 1008.7 - 1.0
26/06:00pm 33.3 34.4 19.7 44 9.1 N 13 19 7 10 1008.3 1005.9 1.0
26/05:30pm 33.8 33.7 18.7 40 10.0 N 17 22 9 12 1008.0 - 1.0
26/05:00pm 34.2 35.2 19.4 41 9.9 NNW 13 20 7 11 1007.9 - 1.0

Other Formats:

Comma delimited format used in spreadsheet applications
http://www.bom.gov.au/fwo/IDD60801/IDD60801.95322.axf

JavaScript Object Notation format (JSON) in row-major order
http://www.bom.gov.au/fwo/IDD60801/IDD60801.95322.json